sensor_id;sensor_type;location;lat;lon;timestamp;P1;durP1;ratioP1;P2;durP2;ratioP2
35977;SDS011;22056;0.000;0.000;2023-02-01T00:01:29;1.00;;;0.65;;
35977;SDS011;22056;0.000;0.000;2023-02-01T00:03:55;4.30;;;1.30;;
35977;SDS011;22056;0.000;0.000;2023-02-01T00:06:21;2.83;;;0.75;;
35977;SDS011;22056;0.000;0.000;2023-02-01T00:08:47;3.15;;;0.93;;
35977;SDS011;22056;0.000;0.000;2023-02-01T00:11:13;3.00;;;0.98;;
35977;SDS011;22056;0.000;0.000;2023-02-01T00:13:41;1.40;;;0.95;;
35977;SDS011;22056;0.000;0.000;2023-02-01T00:16:08;1.65;;;1.00;;
35977;SDS011;22056;0.000;0.000;2023-02-01T00:18:35;2.15;;;0.90;;
35977;SDS011;22056;0.000;0.000;2023-02-01T00:21:01;2.78;;;0.93;;
35977;SDS011;22056;0.000;0.000;2023-02-01T00:23:27;3.10;;;1.17;;
35977;SDS011;22056;0.000;0.000;2023-02-01T00:25:53;1.98;;;0.70;;
35977;SDS011;22056;0.000;0.000;2023-02-01T00:28:19;3.17;;;1.00;;
35977;SDS011;22056;0.000;0.000;2023-02-01T00:30:46;2.65;;;0.90;;
35977;SDS011;22056;0.000;0.000;2023-02-01T00:33:12;3.83;;;0.82;;
35977;SDS011;22056;0.000;0.000;2023-02-01T00:35:38;1.73;;;0.80;;
35977;SDS011;22056;0.000;0.000;2023-02-01T00:38:04;3.45;;;1.00;;
35977;SDS011;22056;0.000;0.000;2023-02-01T00:40:30;3.28;;;0.88;;
35977;SDS011;22056;0.000;0.000;2023-02-01T00:42:56;2.45;;;0.88;;
35977;SDS011;22056;0.000;0.000;2023-02-01T00:45:22;2.78;;;0.88;;
35977;SDS011;22056;0.000;0.000;2023-02-01T00:47:49;2.13;;;0.80;;
35977;SDS011;22056;0.000;0.000;2023-02-01T00:50:15;2.22;;;1.08;;
35977;SDS011;22056;0.000;0.000;2023-02-01T00:52:41;2.33;;;0.75;;
35977;SDS011;22056;0.000;0.000;2023-02-01T00:55:07;1.70;;;0.73;;
35977;SDS011;22056;0.000;0.000;2023-02-01T00:57:34;2.97;;;0.82;;
35977;SDS011;22056;0.000;0.000;2023-02-01T01:00:00;2.55;;;0.82;;
35977;SDS011;22056;0.000;0.000;2023-02-01T01:02:26;2.58;;;0.95;;
35977;SDS011;22056;0.000;0.000;2023-02-01T01:04:52;2.55;;;0.75;;
35977;SDS011;22056;0.000;0.000;2023-02-01T01:07:19;1.40;;;0.70;;
35977;SDS011;22056;0.000;0.000;2023-02-01T01:09:45;2.85;;;0.82;;
35977;SDS011;22056;0.000;0.000;2023-02-01T01:12:11;2.70;;;0.75;;
35977;SDS011;22056;0.000;0.000;2023-02-01T01:14:37;1.48;;;0.60;;
35977;SDS011;22056;0.000;0.000;2023-02-01T01:17:03;1.52;;;0.90;;
35977;SDS011;22056;0.000;0.000;2023-02-01T01:19:29;0.60;;;0.60;;
35977;SDS011;22056;0.000;0.000;2023-02-01T01:21:55;1.77;;;0.68;;
35977;SDS011;22056;0.000;0.000;2023-02-01T01:24:22;1.20;;;0.60;;
35977;SDS011;22056;0.000;0.000;2023-02-01T01:26:48;1.85;;;0.80;;
35977;SDS011;22056;0.000;0.000;2023-02-01T01:29:14;1.65;;;0.68;;
35977;SDS011;22056;0.000;0.000;2023-02-01T01:31:40;1.45;;;0.70;;
35977;SDS011;22056;0.000;0.000;2023-02-01T01:34:06;2.25;;;0.70;;
35977;SDS011;22056;0.000;0.000;2023-02-01T01:36:32;1.15;;;0.80;;
35977;SDS011;22056;0.000;0.000;2023-02-01T01:38:58;1.08;;;0.65;;
35977;SDS011;22056;0.000;0.000;2023-02-01T01:41:26;1.73;;;0.70;;
35977;SDS011;22056;0.000;0.000;2023-02-01T01:43:53;1.30;;;0.75;;
35977;SDS011;22056;0.000;0.000;2023-02-01T01:46:21;1.25;;;0.68;;
35977;SDS011;22056;0.000;0.000;2023-02-01T01:48:49;1.08;;;0.70;;
35977;SDS011;22056;0.000;0.000;2023-02-01T01:51:17;1.73;;;0.70;;
35977;SDS011;22056;0.000;0.000;2023-02-01T01:53:45;4.60;;;0.93;;
35977;SDS011;22056;0.000;0.000;2023-02-01T01:56:13;2.47;;;0.95;;
35977;SDS011;22056;0.000;0.000;2023-02-01T01:58:40;1.27;;;0.80;;
35977;SDS011;22056;0.000;0.000;2023-02-01T02:01:07;1.50;;;0.80;;
35977;SDS011;22056;0.000;0.000;2023-02-01T02:03:34;0.73;;;0.57;;
35977;SDS011;22056;0.000;0.000;2023-02-01T02:06:02;1.50;;;0.60;;
35977;SDS011;22056;0.000;0.000;2023-02-01T02:08:28;1.17;;;0.70;;
35977;SDS011;22056;0.000;0.000;2023-02-01T02:10:55;1.60;;;0.90;;
35977;SDS011;22056;0.000;0.000;2023-02-01T02:13:24;1.77;;;0.85;;
35977;SDS011;22056;0.000;0.000;2023-02-01T02:16:37;1.25;;;0.60;;
35977;SDS011;22056;0.000;0.000;2023-02-01T02:24:14;1.80;;;0.80;;
35977;SDS011;22056;0.000;0.000;2023-02-01T02:27:03;1.67;;;0.70;;
35977;SDS011;22056;0.000;0.000;2023-02-01T02:34:54;2.90;;;0.80;;
35977;SDS011;22056;0.000;0.000;2023-02-01T02:40:07;1.17;;;0.70;;
35977;SDS011;22056;0.000;0.000;2023-02-01T02:45:38;0.93;;;0.60;;
35977;SDS011;22056;0.000;0.000;2023-02-01T02:48:29;1.10;;;0.70;;
35977;SDS011;22056;0.000;0.000;2023-02-01T02:53:48;1.00;;;0.50;;
35977;SDS011;22056;0.000;0.000;2023-02-01T02:56:36;2.42;;;0.90;;
35977;SDS011;22056;0.000;0.000;2023-02-01T02:59:22;1.25;;;0.70;;
35977;SDS011;22056;0.000;0.000;2023-02-01T03:02:09;1.02;;;0.52;;
35977;SDS011;22056;0.000;0.000;2023-02-01T03:04:54;1.40;;;0.55;;
35977;SDS011;22056;0.000;0.000;2023-02-01T03:10:09;1.48;;;0.93;;
35977;SDS011;22056;0.000;0.000;2023-02-01T03:12:37;0.98;;;0.68;;
35977;SDS011;22056;0.000;0.000;2023-02-01T03:15:21;1.00;;;0.55;;
35977;SDS011;22056;0.000;0.000;2023-02-01T03:17:51;1.48;;;0.88;;
35977;SDS011;22056;0.000;0.000;2023-02-01T03:20:19;1.80;;;0.80;;
35977;SDS011;22056;0.000;0.000;2023-02-01T03:22:46;1.65;;;0.82;;
35977;SDS011;22056;0.000;0.000;2023-02-01T03:25:25;1.40;;;0.70;;
35977;SDS011;22056;0.000;0.000;2023-02-01T03:28:06;3.65;;;0.70;;
35977;SDS011;22056;0.000;0.000;2023-02-01T03:30:37;2.05;;;0.70;;
35977;SDS011;22056;0.000;0.000;2023-02-01T03:33:06;1.40;;;0.70;;
35977;SDS011;22056;0.000;0.000;2023-02-01T03:38:30;1.15;;;0.77;;
35977;SDS011;22056;0.000;0.000;2023-02-01T03:43:42;1.02;;;0.60;;
35977;SDS011;22056;0.000;0.000;2023-02-01T03:46:12;1.02;;;0.63;;
35977;SDS011;22056;0.000;0.000;2023-02-01T03:48:42;1.30;;;0.77;;
35977;SDS011;22056;0.000;0.000;2023-02-01T03:51:09;1.70;;;0.70;;
35977;SDS011;22056;0.000;0.000;2023-02-01T03:53:36;1.40;;;0.80;;
35977;SDS011;22056;0.000;0.000;2023-02-01T03:56:03;1.17;;;0.68;;
35977;SDS011;22056;0.000;0.000;2023-02-01T03:58:29;1.27;;;0.60;;
35977;SDS011;22056;0.000;0.000;2023-02-01T04:00:56;1.13;;;0.70;;
35977;SDS011;22056;0.000;0.000;2023-02-01T04:03:23;1.23;;;0.80;;
35977;SDS011;22056;0.000;0.000;2023-02-01T04:05:50;1.15;;;0.50;;
35977;SDS011;22056;0.000;0.000;2023-02-01T04:08:18;1.35;;;0.70;;
35977;SDS011;22056;0.000;0.000;2023-02-01T04:10:44;1.08;;;0.80;;
35977;SDS011;22056;0.000;0.000;2023-02-01T04:13:11;0.90;;;0.60;;
35977;SDS011;22056;0.000;0.000;2023-02-01T04:15:37;1.27;;;0.50;;
35977;SDS011;22056;0.000;0.000;2023-02-01T04:18:03;1.52;;;0.80;;
35977;SDS011;22056;0.000;0.000;2023-02-01T04:20:29;0.80;;;0.55;;
35977;SDS011;22056;0.000;0.000;2023-02-01T04:22:55;1.85;;;0.68;;
35977;SDS011;22056;0.000;0.000;2023-02-01T04:25:21;1.95;;;0.70;;
35977;SDS011;22056;0.000;0.000;2023-02-01T04:27:48;1.08;;;0.60;;
35977;SDS011;22056;0.000;0.000;2023-02-01T04:30:14;0.70;;;0.57;;
35977;SDS011;22056;0.000;0.000;2023-02-01T04:32:40;1.10;;;0.70;;
35977;SDS011;22056;0.000;0.000;2023-02-01T04:35:06;1.00;;;0.68;;
35977;SDS011;22056;0.000;0.000;2023-02-01T04:37:33;0.95;;;0.52;;
35977;SDS011;22056;0.000;0.000;2023-02-01T04:39:59;1.45;;;0.70;;
35977;SDS011;22056;0.000;0.000;2023-02-01T04:42:25;1.38;;;0.47;;
35977;SDS011;22056;0.000;0.000;2023-02-01T04:44:51;1.02;;;0.73;;
35977;SDS011;22056;0.000;0.000;2023-02-01T04:47:17;1.27;;;0.77;;
35977;SDS011;22056;0.000;0.000;2023-02-01T04:49:43;0.88;;;0.70;;
35977;SDS011;22056;0.000;0.000;2023-02-01T04:52:09;0.73;;;0.50;;
35977;SDS011;22056;0.000;0.000;2023-02-01T04:54:36;1.02;;;0.60;;
35977;SDS011;22056;0.000;0.000;2023-02-01T04:57:02;1.80;;;0.85;;
35977;SDS011;22056;0.000;0.000;2023-02-01T04:59:28;0.70;;;0.50;;
35977;SDS011;22056;0.000;0.000;2023-02-01T05:01:54;0.85;;;0.60;;
35977;SDS011;22056;0.000;0.000;2023-02-01T05:04:20;1.10;;;0.55;;
35977;SDS011;22056;0.000;0.000;2023-02-01T05:06:46;0.95;;;0.50;;
35977;SDS011;22056;0.000;0.000;2023-02-01T05:09:12;1.67;;;0.80;;
35977;SDS011;22056;0.000;0.000;2023-02-01T05:11:39;1.15;;;0.65;;
35977;SDS011;22056;0.000;0.000;2023-02-01T05:14:23;3.20;;;0.75;;
35977;SDS011;22056;0.000;0.000;2023-02-01T05:16:49;1.17;;;0.70;;
35977;SDS011;22056;0.000;0.000;2023-02-01T05:19:16;0.88;;;0.60;;
35977;SDS011;22056;0.000;0.000;2023-02-01T05:21:42;1.50;;;0.70;;
35977;SDS011;22056;0.000;0.000;2023-02-01T05:24:08;1.60;;;0.60;;
35977;SDS011;22056;0.000;0.000;2023-02-01T05:26:34;1.02;;;0.60;;
35977;SDS011;22056;0.000;0.000;2023-02-01T05:29:00;1.10;;;0.60;;
35977;SDS011;22056;0.000;0.000;2023-02-01T05:31:27;1.52;;;0.60;;
35977;SDS011;22056;0.000;0.000;2023-02-01T05:33:53;2.13;;;0.70;;
35977;SDS011;22056;0.000;0.000;2023-02-01T05:36:19;1.00;;;0.60;;
35977;SDS011;22056;0.000;0.000;2023-02-01T05:38:45;1.48;;;0.80;;
35977;SDS011;22056;0.000;0.000;2023-02-01T05:41:11;1.10;;;0.70;;
35977;SDS011;22056;0.000;0.000;2023-02-01T05:43:38;0.90;;;0.55;;
35977;SDS011;22056;0.000;0.000;2023-02-01T05:46:04;1.23;;;0.70;;
35977;SDS011;22056;0.000;0.000;2023-02-01T05:48:30;0.95;;;0.70;;
35977;SDS011;22056;0.000;0.000;2023-02-01T05:50:57;1.17;;;0.70;;
35977;SDS011;22056;0.000;0.000;2023-02-01T05:53:23;2.05;;;1.00;;
35977;SDS011;22056;0.000;0.000;2023-02-01T05:55:49;4.30;;;0.77;;
35977;SDS011;22056;0.000;0.000;2023-02-01T05:58:15;2.20;;;0.90;;
35977;SDS011;22056;0.000;0.000;2023-02-01T06:00:41;2.25;;;0.73;;
35977;SDS011;22056;0.000;0.000;2023-02-01T06:03:08;1.42;;;0.82;;
35977;SDS011;22056;0.000;0.000;2023-02-01T06:05:34;3.35;;;0.80;;
35977;SDS011;22056;0.000;0.000;2023-02-01T06:08:02;1.50;;;0.70;;
35977;SDS011;22056;0.000;0.000;2023-02-01T06:10:28;1.00;;;0.77;;
35977;SDS011;22056;0.000;0.000;2023-02-01T06:12:54;1.00;;;0.70;;
35977;SDS011;22056;0.000;0.000;2023-02-01T06:15:20;1.45;;;0.80;;
35977;SDS011;22056;0.000;0.000;2023-02-01T06:17:46;3.53;;;0.80;;
35977;SDS011;22056;0.000;0.000;2023-02-01T06:20:13;1.52;;;0.70;;
35977;SDS011;22056;0.000;0.000;2023-02-01T06:22:39;7.15;;;0.95;;
35977;SDS011;22056;0.000;0.000;2023-02-01T06:25:06;0.95;;;0.68;;
35977;SDS011;22056;0.000;0.000;2023-02-01T06:27:33;2.45;;;0.80;;
35977;SDS011;22056;0.000;0.000;2023-02-01T06:29:59;2.22;;;0.80;;
35977;SDS011;22056;0.000;0.000;2023-02-01T06:32:25;2.72;;;0.80;;
35977;SDS011;22056;0.000;0.000;2023-02-01T06:34:51;3.50;;;0.80;;
35977;SDS011;22056;0.000;0.000;2023-02-01T06:37:18;2.25;;;0.90;;
35977;SDS011;22056;0.000;0.000;2023-02-01T06:39:44;3.30;;;0.73;;
35977;SDS011;22056;0.000;0.000;2023-02-01T06:42:10;1.35;;;0.82;;
35977;SDS011;22056;0.000;0.000;2023-02-01T06:44:37;1.77;;;0.93;;
35977;SDS011;22056;0.000;0.000;2023-02-01T06:47:03;2.67;;;1.00;;
35977;SDS011;22056;0.000;0.000;2023-02-01T06:49:30;1.70;;;0.80;;
35977;SDS011;22056;0.000;0.000;2023-02-01T06:51:56;1.83;;;0.70;;
35977;SDS011;22056;0.000;0.000;2023-02-01T06:54:25;1.27;;;0.70;;
35977;SDS011;22056;0.000;0.000;2023-02-01T06:56:51;1.95;;;0.90;;
35977;SDS011;22056;0.000;0.000;2023-02-01T06:59:17;2.22;;;0.60;;
35977;SDS011;22056;0.000;0.000;2023-02-01T07:01:43;1.92;;;0.75;;
35977;SDS011;22056;0.000;0.000;2023-02-01T07:04:10;2.75;;;0.80;;
35977;SDS011;22056;0.000;0.000;2023-02-01T07:06:37;1.50;;;0.88;;
35977;SDS011;22056;0.000;0.000;2023-02-01T07:09:04;2.83;;;0.80;;
35977;SDS011;22056;0.000;0.000;2023-02-01T07:11:30;2.78;;;0.90;;
35977;SDS011;22056;0.000;0.000;2023-02-01T07:13:57;1.45;;;0.75;;
35977;SDS011;22056;0.000;0.000;2023-02-01T07:16:23;3.30;;;0.85;;
35977;SDS011;22056;0.000;0.000;2023-02-01T07:18:50;2.40;;;0.75;;
35977;SDS011;22056;0.000;0.000;2023-02-01T07:21:16;2.33;;;0.70;;
35977;SDS011;22056;0.000;0.000;2023-02-01T07:23:42;2.92;;;1.13;;
35977;SDS011;22056;0.000;0.000;2023-02-01T07:26:10;3.40;;;1.08;;
35977;SDS011;22056;0.000;0.000;2023-02-01T07:28:38;5.60;;;1.10;;
35977;SDS011;22056;0.000;0.000;2023-02-01T07:31:05;4.22;;;0.85;;
35977;SDS011;22056;0.000;0.000;2023-02-01T07:33:32;3.33;;;0.88;;
35977;SDS011;22056;0.000;0.000;2023-02-01T07:35:59;4.75;;;1.23;;
35977;SDS011;22056;0.000;0.000;2023-02-01T07:38:26;3.13;;;0.88;;
35977;SDS011;22056;0.000;0.000;2023-02-01T07:40:56;3.17;;;1.00;;
35977;SDS011;22056;0.000;0.000;2023-02-01T07:43:23;3.78;;;1.13;;
35977;SDS011;22056;0.000;0.000;2023-02-01T07:45:50;2.28;;;1.02;;
35977;SDS011;22056;0.000;0.000;2023-02-01T07:48:17;2.55;;;1.08;;
35977;SDS011;22056;0.000;0.000;2023-02-01T07:50:43;5.85;;;1.20;;
35977;SDS011;22056;0.000;0.000;2023-02-01T07:53:09;3.45;;;0.77;;
35977;SDS011;22056;0.000;0.000;2023-02-01T07:55:39;3.30;;;0.98;;
35977;SDS011;22056;0.000;0.000;2023-02-01T07:58:05;2.05;;;1.02;;
35977;SDS011;22056;0.000;0.000;2023-02-01T08:00:31;4.63;;;1.33;;
35977;SDS011;22056;0.000;0.000;2023-02-01T08:03:16;4.40;;;1.20;;
35977;SDS011;22056;0.000;0.000;2023-02-01T08:05:42;4.40;;;1.13;;
35977;SDS011;22056;0.000;0.000;2023-02-01T08:08:08;3.22;;;0.80;;
35977;SDS011;22056;0.000;0.000;2023-02-01T08:10:35;4.30;;;0.98;;
35977;SDS011;22056;0.000;0.000;2023-02-01T08:13:02;2.85;;;1.23;;
35977;SDS011;22056;0.000;0.000;2023-02-01T08:15:28;2.55;;;0.88;;
35977;SDS011;22056;0.000;0.000;2023-02-01T08:17:55;2.40;;;0.90;;
35977;SDS011;22056;0.000;0.000;2023-02-01T08:20:22;3.92;;;0.90;;
35977;SDS011;22056;0.000;0.000;2023-02-01T08:22:49;2.83;;;0.82;;
35977;SDS011;22056;0.000;0.000;2023-02-01T08:25:15;3.55;;;1.38;;
35977;SDS011;22056;0.000;0.000;2023-02-01T08:27:42;3.78;;;1.00;;
35977;SDS011;22056;0.000;0.000;2023-02-01T08:30:08;3.58;;;0.90;;
35977;SDS011;22056;0.000;0.000;2023-02-01T08:32:35;4.07;;;1.15;;
35977;SDS011;22056;0.000;0.000;2023-02-01T08:35:01;3.60;;;0.90;;
35977;SDS011;22056;0.000;0.000;2023-02-01T08:37:28;3.88;;;1.20;;
35977;SDS011;22056;0.000;0.000;2023-02-01T08:39:54;3.70;;;0.85;;
35977;SDS011;22056;0.000;0.000;2023-02-01T08:42:21;4.57;;;1.30;;
35977;SDS011;22056;0.000;0.000;2023-02-01T08:45:06;6.97;;;1.20;;
35977;SDS011;22056;0.000;0.000;2023-02-01T08:47:34;3.47;;;1.13;;
35977;SDS011;22056;0.000;0.000;2023-02-01T08:50:02;3.65;;;0.98;;
35977;SDS011;22056;0.000;0.000;2023-02-01T08:52:30;3.28;;;0.90;;
35977;SDS011;22056;0.000;0.000;2023-02-01T08:54:57;3.58;;;1.17;;
35977;SDS011;22056;0.000;0.000;2023-02-01T08:57:23;2.42;;;1.10;;
35977;SDS011;22056;0.000;0.000;2023-02-01T08:59:49;1.90;;;0.75;;
35977;SDS011;22056;0.000;0.000;2023-02-01T09:02:16;2.40;;;1.05;;
35977;SDS011;22056;0.000;0.000;2023-02-01T09:04:42;2.28;;;0.90;;
35977;SDS011;22056;0.000;0.000;2023-02-01T09:07:09;2.83;;;0.80;;
35977;SDS011;22056;0.000;0.000;2023-02-01T09:09:35;3.75;;;1.10;;
35977;SDS011;22056;0.000;0.000;2023-02-01T09:12:02;2.72;;;0.95;;
35977;SDS011;22056;0.000;0.000;2023-02-01T09:14:28;4.20;;;1.10;;
35977;SDS011;22056;0.000;0.000;2023-02-01T09:16:54;3.33;;;0.95;;
35977;SDS011;22056;0.000;0.000;2023-02-01T09:19:21;2.45;;;1.15;;
35977;SDS011;22056;0.000;0.000;2023-02-01T09:21:47;5.28;;;1.20;;
35977;SDS011;22056;0.000;0.000;2023-02-01T09:24:13;4.95;;;0.88;;
35977;SDS011;22056;0.000;0.000;2023-02-01T09:26:39;2.60;;;1.00;;
35977;SDS011;22056;0.000;0.000;2023-02-01T09:29:05;2.65;;;1.02;;
35977;SDS011;22056;0.000;0.000;2023-02-01T09:31:38;3.95;;;0.95;;
35977;SDS011;22056;0.000;0.000;2023-02-01T09:34:05;2.70;;;1.00;;
35977;SDS011;22056;0.000;0.000;2023-02-01T09:36:31;2.63;;;0.90;;
35977;SDS011;22056;0.000;0.000;2023-02-01T09:38:58;2.90;;;0.88;;
35977;SDS011;22056;0.000;0.000;2023-02-01T09:43:56;2.13;;;1.05;;
35977;SDS011;22056;0.000;0.000;2023-02-01T09:48:52;4.13;;;0.98;;
35977;SDS011;22056;0.000;0.000;2023-02-01T09:51:20;3.65;;;0.93;;
35977;SDS011;22056;0.000;0.000;2023-02-01T09:53:53;2.47;;;0.90;;
35977;SDS011;22056;0.000;0.000;2023-02-01T09:56:22;3.75;;;1.23;;
35977;SDS011;22056;0.000;0.000;2023-02-01T10:01:23;4.18;;;1.30;;
35977;SDS011;22056;0.000;0.000;2023-02-01T10:03:51;3.75;;;1.23;;
35977;SDS011;22056;0.000;0.000;2023-02-01T10:09:25;4.15;;;1.10;;
35977;SDS011;22056;0.000;0.000;2023-02-01T10:12:04;2.03;;;0.80;;
35977;SDS011;22056;0.000;0.000;2023-02-01T10:15:04;2.55;;;1.00;;
35977;SDS011;22056;0.000;0.000;2023-02-01T10:22:42;4.35;;;1.25;;
35977;SDS011;22056;0.000;0.000;2023-02-01T10:25:21;3.30;;;1.00;;
35977;SDS011;22056;0.000;0.000;2023-02-01T10:27:49;3.30;;;1.10;;
35977;SDS011;22056;0.000;0.000;2023-02-01T10:30:18;2.85;;;0.80;;
35977;SDS011;22056;0.000;0.000;2023-02-01T10:32:45;4.45;;;1.02;;
35977;SDS011;22056;0.000;0.000;2023-02-01T10:35:17;2.85;;;1.00;;
35977;SDS011;22056;0.000;0.000;2023-02-01T10:37:44;3.17;;;0.90;;
35977;SDS011;22056;0.000;0.000;2023-02-01T10:40:22;2.33;;;0.98;;
35977;SDS011;22056;0.000;0.000;2023-02-01T10:42:49;2.33;;;1.10;;
35977;SDS011;22056;0.000;0.000;2023-02-01T10:45:18;4.85;;;1.10;;
35977;SDS011;22056;0.000;0.000;2023-02-01T10:47:47;2.03;;;0.90;;
35977;SDS011;22056;0.000;0.000;2023-02-01T10:50:33;3.60;;;0.90;;
35977;SDS011;22056;0.000;0.000;2023-02-01T10:53:02;3.35;;;1.08;;
35977;SDS011;22056;0.000;0.000;2023-02-01T10:55:33;2.67;;;0.95;;
35977;SDS011;22056;0.000;0.000;2023-02-01T10:58:01;3.17;;;1.25;;
35977;SDS011;22056;0.000;0.000;2023-02-01T11:00:28;3.63;;;0.88;;
35977;SDS011;22056;0.000;0.000;2023-02-01T11:02:59;2.72;;;0.90;;
35977;SDS011;22056;0.000;0.000;2023-02-01T11:05:26;3.65;;;1.10;;
35977;SDS011;22056;0.000;0.000;2023-02-01T11:07:53;3.05;;;0.90;;
35977;SDS011;22056;0.000;0.000;2023-02-01T11:13:05;3.08;;;1.13;;
35977;SDS011;22056;0.000;0.000;2023-02-01T11:15:42;4.07;;;1.42;;
35977;SDS011;22056;0.000;0.000;2023-02-01T11:18:17;3.08;;;1.17;;
35977;SDS011;22056;0.000;0.000;2023-02-01T11:20:44;3.28;;;1.10;;
35977;SDS011;22056;0.000;0.000;2023-02-01T11:23:23;3.13;;;1.00;;
35977;SDS011;22056;0.000;0.000;2023-02-01T11:28:18;5.93;;;1.25;;
35977;SDS011;22056;0.000;0.000;2023-02-01T11:30:47;3.05;;;1.10;;
35977;SDS011;22056;0.000;0.000;2023-02-01T11:33:18;3.25;;;1.00;;
35977;SDS011;22056;0.000;0.000;2023-02-01T11:35:45;3.72;;;1.27;;
35977;SDS011;22056;0.000;0.000;2023-02-01T11:38:21;4.15;;;1.00;;
35977;SDS011;22056;0.000;0.000;2023-02-01T11:40:47;3.60;;;1.25;;
35977;SDS011;22056;0.000;0.000;2023-02-01T11:43:22;3.95;;;1.13;;
35977;SDS011;22056;0.000;0.000;2023-02-01T11:45:59;4.43;;;1.20;;
35977;SDS011;22056;0.000;0.000;2023-02-01T11:48:26;3.17;;;0.95;;
35977;SDS011;22056;0.000;0.000;2023-02-01T11:53:25;3.47;;;1.10;;
35977;SDS011;22056;0.000;0.000;2023-02-01T12:08:51;3.22;;;1.10;;
35977;SDS011;22056;0.000;0.000;2023-02-01T12:11:42;5.00;;;1.15;;
35977;SDS011;22056;0.000;0.000;2023-02-01T12:16:41;4.97;;;1.38;;
35977;SDS011;22056;0.000;0.000;2023-02-01T12:21:52;2.25;;;0.90;;
35977;SDS011;22056;0.000;0.000;2023-02-01T12:25:04;2.60;;;1.17;;
35977;SDS011;22056;0.000;0.000;2023-02-01T12:37:33;3.10;;;1.10;;
35977;SDS011;22056;0.000;0.000;2023-02-01T12:42:35;3.83;;;1.20;;
35977;SDS011;22056;0.000;0.000;2023-02-01T12:45:09;4.75;;;1.13;;
35977;SDS011;22056;0.000;0.000;2023-02-01T12:47:48;4.43;;;1.08;;
35977;SDS011;22056;0.000;0.000;2023-02-01T12:50:28;3.88;;;1.10;;
35977;SDS011;22056;0.000;0.000;2023-02-01T12:53:02;2.78;;;0.85;;
35977;SDS011;22056;0.000;0.000;2023-02-01T12:55:36;3.80;;;1.10;;
35977;SDS011;22056;0.000;0.000;2023-02-01T13:00:51;4.88;;;1.05;;
35977;SDS011;22056;0.000;0.000;2023-02-01T13:03:34;4.57;;;1.08;;
35977;SDS011;22056;0.000;0.000;2023-02-01T13:11:50;3.08;;;1.00;;
35977;SDS011;22056;0.000;0.000;2023-02-01T13:14:03;2.70;;;1.10;;
35977;SDS011;22056;0.000;0.000;2023-02-01T13:16:40;4.70;;;1.27;;
35977;SDS011;22056;0.000;0.000;2023-02-01T13:19:13;3.83;;;1.00;;
35977;SDS011;22056;0.000;0.000;2023-02-01T13:21:43;3.58;;;1.20;;
35977;SDS011;22056;0.000;0.000;2023-02-01T13:24:21;6.03;;;1.10;;
35977;SDS011;22056;0.000;0.000;2023-02-01T13:26:49;3.08;;;1.15;;
35977;SDS011;22056;0.000;0.000;2023-02-01T13:29:15;4.88;;;1.00;;
35977;SDS011;22056;0.000;0.000;2023-02-01T13:42:26;10.63;;;1.25;;
35977;SDS011;22056;0.000;0.000;2023-02-01T13:44:58;6.30;;;1.25;;
35977;SDS011;22056;0.000;0.000;2023-02-01T13:47:31;3.28;;;1.23;;
35977;SDS011;22056;0.000;0.000;2023-02-01T13:50:04;5.13;;;1.13;;
35977;SDS011;22056;0.000;0.000;2023-02-01T13:52:39;3.30;;;1.23;;
35977;SDS011;22056;0.000;0.000;2023-02-01T13:57:39;5.72;;;1.45;;
35977;SDS011;22056;0.000;0.000;2023-02-01T14:08:09;4.63;;;1.30;;
35977;SDS011;22056;0.000;0.000;2023-02-01T14:10:56;4.75;;;1.42;;
35977;SDS011;22056;0.000;0.000;2023-02-01T14:26:26;7.40;;;1.50;;
35977;SDS011;22056;0.000;0.000;2023-02-01T14:28:56;5.47;;;1.33;;
35977;SDS011;22056;0.000;0.000;2023-02-01T14:31:28;4.43;;;1.30;;
35977;SDS011;22056;0.000;0.000;2023-02-01T14:34:00;5.32;;;1.40;;
35977;SDS011;22056;0.000;0.000;2023-02-01T14:36:38;4.53;;;1.33;;
35977;SDS011;22056;0.000;0.000;2023-02-01T14:39:04;4.80;;;0.90;;
35977;SDS011;22056;0.000;0.000;2023-02-01T14:41:31;7.30;;;1.40;;
35977;SDS011;22056;0.000;0.000;2023-02-01T14:49:09;3.45;;;0.93;;
35977;SDS011;22056;0.000;0.000;2023-02-01T14:51:36;3.55;;;1.13;;
35977;SDS011;22056;0.000;0.000;2023-02-01T14:54:02;4.35;;;1.13;;
35977;SDS011;22056;0.000;0.000;2023-02-01T14:56:29;6.05;;;1.63;;
35977;SDS011;22056;0.000;0.000;2023-02-01T14:58:58;3.03;;;1.02;;
35977;SDS011;22056;0.000;0.000;2023-02-01T15:01:27;3.10;;;1.15;;
35977;SDS011;22056;0.000;0.000;2023-02-01T15:04:04;3.65;;;1.35;;
35977;SDS011;22056;0.000;0.000;2023-02-01T15:09:20;3.55;;;1.02;;
35977;SDS011;22056;0.000;0.000;2023-02-01T15:14:19;4.10;;;0.77;;
35977;SDS011;22056;0.000;0.000;2023-02-01T15:16:45;5.45;;;1.35;;
35977;SDS011;22056;0.000;0.000;2023-02-01T15:19:18;4.03;;;1.17;;
35977;SDS011;22056;0.000;0.000;2023-02-01T15:21:47;3.85;;;1.20;;
35977;SDS011;22056;0.000;0.000;2023-02-01T15:24:14;6.43;;;1.30;;
35977;SDS011;22056;0.000;0.000;2023-02-01T15:26:44;6.35;;;1.60;;
35977;SDS011;22056;0.000;0.000;2023-02-01T15:29:11;6.07;;;1.17;;
35977;SDS011;22056;0.000;0.000;2023-02-01T15:31:45;5.20;;;1.42;;
35977;SDS011;22056;0.000;0.000;2023-02-01T15:34:12;5.90;;;1.10;;
35977;SDS011;22056;0.000;0.000;2023-02-01T15:36:38;2.60;;;1.38;;
35977;SDS011;22056;0.000;0.000;2023-02-01T15:39:18;5.13;;;1.67;;
35977;SDS011;22056;0.000;0.000;2023-02-01T15:42:30;4.13;;;1.20;;
35977;SDS011;22056;0.000;0.000;2023-02-01T15:47:05;5.05;;;1.55;;
35977;SDS011;22056;0.000;0.000;2023-02-01T15:49:35;5.07;;;1.20;;
35977;SDS011;22056;0.000;0.000;2023-02-01T15:52:02;3.72;;;1.05;;
35977;SDS011;22056;0.000;0.000;2023-02-01T15:54:39;4.63;;;0.98;;
35977;SDS011;22056;0.000;0.000;2023-02-01T15:57:06;3.63;;;1.00;;
35977;SDS011;22056;0.000;0.000;2023-02-01T15:59:36;2.60;;;0.98;;
35977;SDS011;22056;0.000;0.000;2023-02-01T16:02:03;4.03;;;1.10;;
35977;SDS011;22056;0.000;0.000;2023-02-01T16:04:30;2.95;;;1.02;;
35977;SDS011;22056;0.000;0.000;2023-02-01T16:06:58;3.45;;;1.17;;
35977;SDS011;22056;0.000;0.000;2023-02-01T16:09:36;6.85;;;1.10;;
35977;SDS011;22056;0.000;0.000;2023-02-01T16:12:03;3.83;;;1.40;;
35977;SDS011;22056;0.000;0.000;2023-02-01T16:14:30;5.57;;;1.30;;
35977;SDS011;22056;0.000;0.000;2023-02-01T16:16:58;6.38;;;1.38;;
35977;SDS011;22056;0.000;0.000;2023-02-01T16:19:24;4.18;;;0.90;;
35977;SDS011;22056;0.000;0.000;2023-02-01T16:21:55;4.57;;;1.23;;
35977;SDS011;22056;0.000;0.000;2023-02-01T16:24:23;3.05;;;1.00;;
35977;SDS011;22056;0.000;0.000;2023-02-01T16:26:50;5.93;;;1.50;;
35977;SDS011;22056;0.000;0.000;2023-02-01T16:29:17;5.70;;;1.10;;
35977;SDS011;22056;0.000;0.000;2023-02-01T16:31:43;4.55;;;1.02;;
35977;SDS011;22056;0.000;0.000;2023-02-01T16:34:18;2.40;;;0.82;;
35977;SDS011;22056;0.000;0.000;2023-02-01T16:36:48;1.58;;;0.85;;
35977;SDS011;22056;0.000;0.000;2023-02-01T16:39:22;2.85;;;0.90;;
35977;SDS011;22056;0.000;0.000;2023-02-01T16:41:48;5.18;;;1.20;;
35977;SDS011;22056;0.000;0.000;2023-02-01T16:44:14;4.88;;;1.13;;
35977;SDS011;22056;0.000;0.000;2023-02-01T16:46:42;3.85;;;0.90;;
35977;SDS011;22056;0.000;0.000;2023-02-01T16:49:20;3.58;;;0.95;;
35977;SDS011;22056;0.000;0.000;2023-02-01T16:51:47;3.85;;;1.33;;
35977;SDS011;22056;0.000;0.000;2023-02-01T16:54:13;2.70;;;1.00;;
35977;SDS011;22056;0.000;0.000;2023-02-01T16:56:40;3.67;;;1.00;;
35977;SDS011;22056;0.000;0.000;2023-02-01T16:59:07;4.03;;;1.13;;
35977;SDS011;22056;0.000;0.000;2023-02-01T17:01:34;4.90;;;1.40;;
35977;SDS011;22056;0.000;0.000;2023-02-01T17:04:02;2.42;;;1.00;;
35977;SDS011;22056;0.000;0.000;2023-02-01T17:06:28;2.72;;;1.25;;
35977;SDS011;22056;0.000;0.000;2023-02-01T17:08:57;2.95;;;1.05;;
35977;SDS011;22056;0.000;0.000;2023-02-01T17:11:24;2.42;;;1.10;;
35977;SDS011;22056;0.000;0.000;2023-02-01T17:13:51;5.63;;;1.15;;
35977;SDS011;22056;0.000;0.000;2023-02-01T17:18:43;5.68;;;0.90;;
35977;SDS011;22056;0.000;0.000;2023-02-01T17:21:10;3.20;;;1.00;;
35977;SDS011;22056;0.000;0.000;2023-02-01T17:23:36;3.13;;;1.05;;
35977;SDS011;22056;0.000;0.000;2023-02-01T17:26:03;2.78;;;1.00;;
35977;SDS011;22056;0.000;0.000;2023-02-01T17:28:29;2.15;;;1.20;;
35977;SDS011;22056;0.000;0.000;2023-02-01T17:30:55;2.55;;;1.02;;